createdAt,value
2018-04-12T00:00:40.637Z,99088.09
2018-04-12T00:03:10.620Z,99080.88
2018-04-12T00:05:40.706Z,99082.05
2018-04-12T00:08:09.918Z,99076.16
2018-04-12T00:10:39.187Z,99079.69
2018-04-12T00:13:08.427Z,99077.72
2018-04-12T00:15:37.692Z,99075.34
2018-04-12T00:18:07.134Z,99065.57
2018-04-12T00:20:36.390Z,99068.45
2018-04-12T00:23:05.695Z,99063.67
2018-04-12T00:25:34.943Z,99061.98
2018-04-12T00:28:04.298Z,99050.98
2018-04-12T00:30:34.339Z,99046.71
2018-04-12T00:33:03.583Z,99050.03
2018-04-12T00:35:32.878Z,99047.02
2018-04-12T00:38:02.110Z,99052.09
2018-04-12T00:40:31.325Z,99046.86
2018-04-12T00:43:00.598Z,99042.66
2018-04-12T00:45:29.763Z,99049.68
2018-04-12T00:47:58.973Z,99045.81
2018-04-12T00:50:28.249Z,99038.22
2018-04-12T00:52:57.505Z,99036.92
2018-04-12T00:55:27.534Z,99030.00
2018-04-12T00:57:57.520Z,99025.50
2018-04-12T01:00:26.777Z,99030.39
2018-04-12T01:02:56.033Z,99027.37
2018-04-12T01:05:26.063Z,99030.09
2018-04-12T01:07:55.334Z,99026.45
2018-04-12T01:10:24.694Z,99026.36
2018-04-12T01:12:53.917Z,99027.84
2018-04-12T01:15:23.189Z,99025.17
2018-04-12T01:17:52.409Z,99027.25
2018-04-12T01:20:21.683Z,99022.35
2018-04-12T01:22:50.899Z,99021.47
2018-04-12T01:25:20.161Z,99015.79
2018-04-12T01:27:49.405Z,99010.98
2018-04-12T01:30:18.646Z,99002.33
2018-04-12T01:33:06.431Z,98998.97
2018-04-12T01:35:35.687Z,99000.98
2018-04-12T01:38:04.931Z,98994.77
2018-04-12T01:40:34.189Z,98994.37
2018-04-12T01:43:03.471Z,98995.13
2018-04-12T01:45:33.472Z,98990.13
2018-04-12T01:48:02.702Z,98986.30
2018-04-12T01:50:31.939Z,98976.53
2018-04-12T01:53:01.206Z,98973.85
2018-04-12T01:55:30.438Z,98976.60
2018-04-12T01:58:00.407Z,98973.42
2018-04-12T02:00:29.667Z,98971.36
2018-04-12T02:02:58.899Z,98919.67
2018-04-12T02:05:28.997Z,98827.41
2018-04-12T02:07:58.282Z,98821.57
2018-04-12T02:10:27.511Z,98826.03
2018-04-12T02:12:57.473Z,98828.09
2018-04-12T02:15:26.909Z,98822.27
2018-04-12T02:17:57.026Z,98821.27
2018-04-12T02:20:26.241Z,98819.02
2018-04-12T02:22:56.322Z,98815.12
2018-04-12T02:25:25.546Z,98813.29
2018-04-12T02:27:55.577Z,98809.34
2018-04-12T02:30:24.866Z,98800.78
2018-04-12T02:32:54.872Z,98795.92
2018-04-12T02:35:24.107Z,98794.63
2018-04-12T02:37:53.318Z,98787.98
2018-04-12T02:40:22.526Z,98790.92
2018-04-12T02:42:51.733Z,98788.91
2018-04-12T02:45:21.003Z,98781.16
2018-04-12T02:47:50.268Z,98766.83
2018-04-12T02:50:19.476Z,98769.22
2018-04-12T02:52:49.489Z,98770.72
2018-04-12T02:55:18.697Z,98764.77
2018-04-12T02:57:48.693Z,98765.38
2018-04-12T03:00:17.925Z,98764.77
2018-04-12T03:02:47.153Z,98764.13
2018-04-12T03:05:16.398Z,98762.52
2018-04-12T03:07:45.654Z,98761.80
2018-04-12T03:10:15.104Z,98757.09
2018-04-12T03:12:45.120Z,98760.55
2018-04-12T03:15:15.132Z,98757.02
2018-04-12T03:17:44.360Z,98755.81
2018-04-12T03:20:13.625Z,98757.56
2018-04-12T03:22:43.702Z,98750.21
2018-04-12T03:25:12.975Z,98749.42
2018-04-12T03:27:42.177Z,98742.73
2018-04-12T03:30:11.408Z,98732.16
2018-04-12T03:32:40.642Z,98733.06
2018-04-12T03:35:10.758Z,98729.25
2018-04-12T03:37:40.785Z,98730.56
2018-04-12T03:40:10.029Z,98724.68
2018-04-12T03:42:40.046Z,98723.33
2018-04-12T03:45:09.385Z,98729.03
2018-04-12T03:47:38.602Z,98724.86
2018-04-12T03:50:07.857Z,98723.14
2018-04-12T03:52:37.071Z,98730.67
2018-04-12T03:55:06.327Z,98722.33
2018-04-12T03:57:35.572Z,98730.09
2018-04-12T04:00:04.868Z,98720.18
2018-04-12T04:02:34.097Z,98719.61
2018-04-12T04:05:03.293Z,98712.05
2018-04-12T04:07:32.581Z,98710.63
2018-04-12T04:10:02.574Z,98714.98
2018-04-12T04:12:31.797Z,98715.41
2018-04-12T04:15:28.186Z,98711.42
2018-04-12T04:18:14.896Z,98708.11
2018-04-12T04:21:12.601Z,98706.96
2018-04-12T04:23:41.850Z,98705.11
2018-04-12T04:26:11.918Z,98705.20
2018-04-12T04:28:42.665Z,98704.35
2018-04-12T04:31:11.955Z,98700.82
2018-04-12T04:33:41.935Z,98694.58
2018-04-12T04:36:11.151Z,98688.20
2018-04-12T04:38:41.169Z,98697.22
2018-04-12T04:41:11.189Z,98694.52
2018-04-12T04:43:41.204Z,98691.09
2018-04-12T04:46:11.196Z,98695.58
2018-04-12T04:48:40.663Z,98692.27
2018-04-12T04:51:09.838Z,98692.30
2018-04-12T04:53:39.146Z,98694.41
2018-04-12T04:56:08.359Z,98694.80
2018-04-12T04:58:37.593Z,98687.85
2018-04-12T05:01:06.886Z,98683.97
2018-04-12T05:03:36.125Z,98685.14
2018-04-12T05:06:06.113Z,98680.69
2018-04-12T05:08:36.116Z,98678.20
2018-04-12T05:11:05.341Z,98679.59
2018-04-12T05:13:35.366Z,98673.67
2018-04-12T05:16:05.346Z,98678.30
2018-04-12T05:18:34.583Z,98671.81
2018-04-12T05:21:04.591Z,98671.56
2018-04-12T05:23:33.821Z,98669.72
2018-04-12T05:26:03.085Z,98662.41
2018-04-12T05:28:33.191Z,98672.34
2018-04-12T05:31:02.424Z,98668.39
2018-04-12T05:33:32.397Z,98667.11
2018-04-12T05:36:01.704Z,98662.18
2018-04-12T05:38:31.054Z,98659.43
2018-04-12T05:41:00.300Z,98666.48
2018-04-12T05:43:29.494Z,98664.63
2018-04-12T05:45:58.718Z,98665.44
2018-04-12T05:48:28.933Z,98674.05
2018-04-12T05:50:58.148Z,98673.71
2018-04-12T05:53:27.351Z,98677.16
2018-04-12T05:55:56.583Z,98670.51
2018-04-12T05:58:25.964Z,98672.86
2018-04-12T06:00:55.206Z,98665.81
2018-04-12T06:03:24.413Z,98661.48
2018-04-12T06:05:54.403Z,98659.78
2018-04-12T06:08:23.631Z,98654.52
2018-04-12T06:10:53.683Z,98662.11
2018-04-12T06:13:23.629Z,98660.66
2018-04-12T06:15:52.902Z,98668.20
2018-04-12T06:18:22.117Z,98665.66
2018-04-12T06:20:51.331Z,98664.33
2018-04-12T06:23:20.659Z,98664.41
2018-04-12T06:25:50.634Z,98656.56
2018-04-12T06:28:19.855Z,98661.13
2018-04-12T06:30:49.083Z,98659.91
2018-04-12T06:33:18.322Z,98662.53
2018-04-12T06:35:47.535Z,98655.41
2018-04-12T06:38:16.799Z,98662.30
2018-04-12T06:40:46.024Z,98659.22
2018-04-12T06:43:15.240Z,98651.94
2018-04-12T06:45:44.473Z,98646.84
2018-04-12T06:48:13.689Z,98647.19
2018-04-12T06:50:43.022Z,98642.15
2018-04-12T06:53:12.265Z,98643.42
2018-04-12T06:55:41.503Z,98642.84
2018-04-12T06:58:10.828Z,98641.59
2018-04-12T07:00:40.056Z,98642.70
2018-04-12T07:03:10.067Z,98644.31
2018-04-12T07:05:40.049Z,98638.92
2018-04-12T07:08:09.280Z,98645.28
2018-04-12T07:10:39.277Z,98643.27
2018-04-12T07:13:09.285Z,98637.84
2018-04-12T07:15:38.582Z,98641.30
2018-04-12T07:18:07.826Z,98640.34
2018-04-12T07:20:37.073Z,98640.16
2018-04-12T07:23:06.297Z,98632.05
2018-04-12T07:25:36.295Z,98639.84
2018-04-12T07:28:05.516Z,98644.42
2018-04-12T07:30:35.613Z,98648.02
2018-04-12T07:33:04.872Z,98659.61
2018-04-12T07:35:34.169Z,98650.77
2018-04-12T07:38:03.374Z,98656.02
2018-04-12T07:40:32.580Z,98643.50
2018-04-12T07:43:01.803Z,98647.15
2018-04-12T07:45:31.035Z,98644.95
2018-04-12T07:48:01.126Z,98654.84
2018-04-12T07:50:30.423Z,98648.02
2018-04-12T07:53:00.459Z,98650.72
2018-04-12T07:55:29.714Z,98640.84
2018-04-12T07:57:59.624Z,98637.86
2018-04-12T08:00:28.873Z,98640.05
2018-04-12T08:02:58.860Z,98647.62
2018-04-12T08:05:28.107Z,98642.40
2018-04-12T08:07:57.406Z,98642.63
2018-04-12T08:10:27.390Z,98642.61
2018-04-12T08:12:57.385Z,98643.04
2018-04-12T08:15:26.628Z,98639.81
2018-04-12T08:17:55.905Z,98632.14
2018-04-12T08:20:25.926Z,98634.58
2018-04-12T08:22:55.961Z,98627.22
2018-04-12T08:25:25.308Z,98622.37
2018-04-12T08:27:54.580Z,98626.99
2018-04-12T08:30:23.796Z,98624.13
2018-04-12T08:32:53.266Z,98625.16
2018-04-12T08:35:22.531Z,98614.89
2018-04-12T08:37:51.780Z,98614.98
2018-04-12T08:40:21.560Z,98620.58
2018-04-12T08:42:50.815Z,98619.33
2018-04-12T08:45:20.027Z,98615.64
2018-04-12T08:47:49.264Z,98605.44
2018-04-12T08:50:18.572Z,98602.22
2018-04-12T08:52:47.761Z,98614.83
2018-04-12T08:55:17.010Z,98604.66
2018-04-12T08:57:46.228Z,98604.63
2018-04-12T09:00:16.257Z,98593.59
2018-04-12T09:02:46.234Z,98569.98
2018-04-12T09:05:15.516Z,98566.19
2018-04-12T09:07:44.753Z,98547.47
2018-04-12T09:10:13.955Z,98538.50
2018-04-12T09:12:43.420Z,98528.41
2018-04-12T09:15:12.696Z,98563.62
2018-04-12T09:17:41.909Z,98558.19
2018-04-12T09:20:11.223Z,98575.95
2018-04-12T09:22:41.305Z,98564.09
2018-04-12T09:25:10.545Z,98560.90
2018-04-12T09:27:39.823Z,98543.19
2018-04-12T09:30:08.993Z,98546.83
2018-04-12T09:32:38.234Z,98539.61
2018-04-12T09:35:07.477Z,98538.16
2018-04-12T09:37:37.525Z,98536.94
2018-04-12T09:40:06.773Z,98542.51
2018-04-12T09:42:36.006Z,98536.19
2018-04-12T09:45:05.991Z,98538.11
2018-04-12T09:47:36.010Z,98548.62
2018-04-12T09:50:05.251Z,98543.55
2018-04-12T09:52:34.466Z,98550.28
2018-04-12T09:55:03.676Z,98548.80
2018-04-12T09:57:32.889Z,98540.09
2018-04-12T10:00:02.218Z,98536.91
2018-04-12T10:02:31.344Z,98532.93
2018-04-12T10:05:00.582Z,98518.85
2018-04-12T10:07:35.406Z,98508.19
2018-04-12T10:10:04.602Z,98515.72
2018-04-12T10:12:33.833Z,98524.20
2018-04-12T10:15:03.811Z,98509.66
2018-04-12T10:17:33.050Z,98523.97
2018-04-12T10:20:03.079Z,98521.30
2018-04-12T10:22:32.284Z,98521.55
2018-04-12T10:25:01.534Z,98524.91
2018-04-12T10:27:30.781Z,98516.33
2018-04-12T10:30:00.006Z,98526.66
2018-04-12T10:32:29.223Z,98527.25
2018-04-12T10:34:58.442Z,98532.13
2018-04-12T10:37:28.473Z,98535.27
2018-04-12T10:39:58.435Z,98534.48
2018-04-12T10:42:28.434Z,98515.36
2018-04-12T10:44:57.662Z,98524.55
2018-04-12T10:47:26.889Z,98524.35
2018-04-12T10:49:56.861Z,98541.15
2018-04-12T10:52:26.100Z,98533.72
2018-04-12T10:54:56.078Z,98522.02
2018-04-12T10:57:25.336Z,98514.60
2018-04-12T10:59:55.414Z,98512.26
2018-04-12T11:02:24.665Z,98508.55
2018-04-12T11:04:53.897Z,98506.58
2018-04-12T11:07:23.149Z,98494.05
2018-04-12T11:09:52.369Z,98495.38
2018-04-12T11:12:21.602Z,98498.07
2018-04-12T11:14:50.856Z,98507.22
2018-04-12T11:17:20.064Z,98519.18
2018-04-12T11:19:49.282Z,98504.31
2018-04-12T11:22:18.497Z,98511.52
2018-04-12T11:24:47.760Z,98504.64
2018-04-12T11:27:17.835Z,98513.03
2018-04-12T11:29:47.877Z,98518.23
2018-04-12T11:32:17.913Z,98521.91
2018-04-12T11:34:47.566Z,98525.16
2018-04-12T11:37:16.781Z,98521.13
2018-04-12T11:39:46.762Z,98514.97
2018-04-12T11:42:16.014Z,98510.63
2018-04-12T11:44:45.266Z,98500.18
2018-04-12T11:47:14.478Z,98498.34
2018-04-12T11:49:44.497Z,98502.11
2018-04-12T11:52:14.443Z,98496.48
2018-04-12T11:54:43.704Z,98499.50
2018-04-12T11:57:12.932Z,98498.38
2018-04-12T11:59:42.166Z,98504.27
2018-04-12T12:02:11.379Z,98497.40
2018-04-12T12:04:40.622Z,98493.49
2018-04-12T12:07:09.877Z,98492.48
2018-04-12T12:09:39.888Z,98479.44
2018-04-12T12:12:09.133Z,98472.51
2018-04-12T12:14:38.346Z,98470.04
2018-04-12T12:17:07.595Z,98474.02
2018-04-12T12:19:36.864Z,98474.47
2018-04-12T12:22:06.089Z,98469.30
2018-04-12T12:24:35.326Z,98462.98
2018-04-12T12:27:04.554Z,98462.33
2018-04-12T12:29:33.800Z,98460.90
2018-04-12T12:32:03.116Z,98462.39
2018-04-12T12:34:32.359Z,98463.53
2018-04-12T12:37:01.631Z,98459.12
2018-04-12T12:39:30.913Z,98457.86
2018-04-12T12:42:00.118Z,98450.94
2018-04-12T12:44:29.332Z,98442.92
2018-04-12T12:46:58.626Z,98451.25
2018-04-12T12:49:27.833Z,98447.63
2018-04-12T12:51:57.120Z,98441.64
2018-04-12T12:54:27.103Z,98437.87
2018-04-12T12:56:57.136Z,98428.09
2018-04-12T12:59:26.396Z,98420.33
2018-04-12T13:01:55.610Z,98423.56
2018-04-12T13:04:24.879Z,98418.96
2018-04-12T13:06:54.136Z,98414.72
2018-04-12T13:09:23.584Z,98420.44
2018-04-12T13:11:52.856Z,98424.19
2018-04-12T13:14:22.036Z,98423.84
2018-04-12T13:16:51.341Z,98430.37
2018-04-12T13:19:20.582Z,98429.91
2018-04-12T13:21:49.799Z,98435.91
2018-04-12T13:24:19.012Z,98437.79
2018-04-12T13:26:49.025Z,98431.85
2018-04-12T13:29:18.994Z,98423.36
2018-04-12T13:31:48.240Z,98419.02
2018-04-12T13:34:18.243Z,98407.45
2018-04-12T13:36:47.488Z,98392.65
2018-04-12T13:39:16.953Z,98401.08
2018-04-12T13:41:46.944Z,98408.44
2018-04-12T13:44:16.227Z,98419.85
2018-04-12T13:46:45.445Z,98419.83
2018-04-12T13:49:14.668Z,98422.41
2018-04-12T13:51:44.680Z,98416.13
2018-04-12T13:54:14.658Z,98422.65
2018-04-12T13:56:43.897Z,98428.72
2018-04-12T13:59:13.920Z,98433.52
2018-04-12T14:01:43.977Z,98430.34
2018-04-12T14:04:13.217Z,98430.74
2018-04-12T14:06:42.438Z,98430.45
2018-04-12T14:09:11.730Z,98422.77
2018-04-12T14:11:41.733Z,98419.07
2018-04-12T14:14:11.877Z,98412.32
2018-04-12T14:16:41.106Z,98421.95
2018-04-12T14:19:10.380Z,98421.27
2018-04-12T14:21:40.351Z,98425.35
2018-04-12T14:24:10.338Z,98428.51
2018-04-12T14:26:39.562Z,98429.02
2018-04-12T14:29:08.800Z,98416.05
2018-04-12T14:31:38.768Z,98423.55
2018-04-12T14:34:08.024Z,98431.54
2018-04-12T14:36:37.314Z,98427.53
2018-04-12T14:39:07.274Z,98436.66
2018-04-12T14:41:36.544Z,98432.09
2018-04-12T14:44:05.826Z,98434.05
2018-04-12T14:46:35.073Z,98437.94
2018-04-12T14:49:04.259Z,98429.09
2018-04-12T14:51:33.514Z,98433.05
2018-04-12T14:54:03.600Z,98433.49
2018-04-12T14:56:32.850Z,98445.42
2018-04-12T14:59:02.084Z,98444.92
2018-04-12T15:01:32.118Z,98441.60
2018-04-12T15:04:01.367Z,98443.67
2018-04-12T15:06:30.622Z,98443.77
2018-04-12T15:09:00.641Z,98447.02
2018-04-12T15:11:30.650Z,98452.02
2018-04-12T15:13:59.881Z,98460.30
2018-04-12T15:16:29.129Z,98458.75
2018-04-12T15:18:58.415Z,98467.45
2018-04-12T15:21:27.932Z,98464.36
2018-04-12T15:23:57.568Z,98457.38
2018-04-12T15:26:26.939Z,98451.43
2018-04-12T15:28:56.143Z,98451.78
2018-04-12T15:31:25.361Z,98454.14
2018-04-12T15:33:55.397Z,98478.25
2018-04-12T15:36:25.460Z,98474.63
2018-04-12T15:38:54.685Z,98470.22
2018-04-12T15:41:23.892Z,98473.02
2018-04-12T15:43:53.885Z,98500.73
2018-04-12T15:46:23.105Z,98495.05
2018-04-12T15:48:53.093Z,98490.85
2018-04-12T15:51:22.354Z,98486.09
2018-04-12T15:53:51.578Z,98484.94
2018-04-12T15:56:20.790Z,98469.75
2018-04-12T15:58:50.040Z,98474.04
2018-04-12T16:01:19.256Z,98443.25
2018-04-12T16:03:48.505Z,98442.17
2018-04-12T16:06:18.485Z,98447.04
2018-04-12T16:08:47.831Z,98448.56
2018-04-12T16:11:17.826Z,98462.59
2018-04-12T16:13:47.088Z,98466.84
2018-04-12T16:16:16.292Z,98474.05
2018-04-12T16:18:45.679Z,98469.09
2018-04-12T16:21:14.888Z,98485.34
2018-04-12T16:23:44.221Z,98486.63
2018-04-12T16:26:13.425Z,98484.44
2018-04-12T16:28:43.501Z,98476.44
2018-04-12T16:31:12.757Z,98492.10
2018-04-12T16:33:42.759Z,98491.15
2018-04-12T16:36:12.014Z,98497.98
2018-04-12T16:38:41.254Z,98495.23
2018-04-12T16:41:11.347Z,98498.13
2018-04-12T16:43:40.575Z,98499.28
2018-04-12T16:46:09.834Z,98498.14
2018-04-12T16:48:39.269Z,98503.66
2018-04-12T16:51:08.535Z,98507.22
2018-04-12T16:53:37.780Z,98506.50
2018-04-12T16:56:07.903Z,98504.34
2018-04-12T16:58:37.897Z,98507.08
2018-04-12T17:01:07.146Z,98509.45
2018-04-12T17:03:36.455Z,98514.40
2018-04-12T17:06:06.472Z,98514.02
2018-04-12T17:08:35.695Z,98510.91
2018-04-12T17:11:04.955Z,98513.25
2018-04-12T17:13:34.230Z,98512.05
2018-04-12T17:16:04.208Z,98507.72
2018-04-12T17:18:33.433Z,98513.19
2018-04-12T17:21:03.429Z,98512.80
2018-04-12T17:23:32.677Z,98504.98
2018-04-12T17:26:01.945Z,98515.36
2018-04-12T17:28:31.967Z,98517.55
2018-04-12T17:31:01.946Z,98514.84
2018-04-12T17:33:31.213Z,98507.80
2018-04-12T17:36:00.417Z,98516.61
2018-04-12T17:38:29.668Z,98516.62
2018-04-12T17:40:58.983Z,98523.67
2018-04-12T17:43:29.004Z,98529.16
2018-04-12T17:45:58.247Z,98536.79
2018-04-12T17:48:27.614Z,98548.33
2018-04-12T17:50:56.839Z,98558.92
2018-04-12T17:53:26.133Z,98554.81
2018-04-12T17:55:55.358Z,98560.28
2018-04-12T17:58:24.590Z,98558.91
2018-04-12T18:00:54.582Z,98562.22
2018-04-12T18:03:23.835Z,98563.02
2018-04-12T18:05:53.782Z,98571.61
2018-04-12T18:08:23.002Z,98566.73
2018-04-12T18:10:52.302Z,98569.28
2018-04-12T18:13:22.354Z,98572.81
2018-04-12T18:15:51.695Z,98574.96
2018-04-12T18:18:20.933Z,98585.49
2018-04-12T18:20:50.948Z,98593.89
2018-04-12T18:23:21.036Z,98593.88
2018-04-12T18:25:50.499Z,98597.58
2018-04-12T18:28:20.471Z,98600.86
2018-04-12T18:30:49.753Z,98601.81
2018-04-12T18:33:19.015Z,98595.00
2018-04-12T18:35:48.314Z,98601.22
2018-04-12T18:38:17.548Z,98606.85
2018-04-12T18:40:46.797Z,98604.91
2018-04-12T18:43:16.778Z,98615.39
2018-04-12T18:45:46.231Z,98615.33
2018-04-12T18:48:15.472Z,98620.56
2018-04-12T18:50:44.730Z,98628.36
2018-04-12T18:53:13.952Z,98627.16
2018-04-12T18:55:43.201Z,98634.38
2018-04-12T18:58:13.772Z,98643.55
2018-04-12T19:00:42.952Z,98646.05
2018-04-12T19:03:12.171Z,98644.79
2018-04-12T19:05:41.458Z,98646.16
2018-04-12T19:08:10.694Z,98653.13
2018-04-12T19:10:40.701Z,98650.94
2018-04-12T19:13:09.983Z,98648.94
2018-04-12T19:15:39.252Z,98651.67
2018-04-12T19:18:08.510Z,98648.89
2018-04-12T19:20:38.541Z,98645.32
2018-04-12T19:23:08.531Z,98650.59
2018-04-12T19:25:38.591Z,98655.52
2018-04-12T19:28:07.882Z,98650.48
2018-04-12T19:30:37.188Z,98652.24
2018-04-12T19:33:06.456Z,98657.12
2018-04-12T19:35:35.682Z,98652.44
2018-04-12T19:38:04.928Z,98655.52
2018-04-12T19:40:34.947Z,98656.91
2018-04-12T19:43:04.955Z,98656.56
2018-04-12T19:45:34.256Z,98650.73
2018-04-12T19:48:03.502Z,98655.41
2018-04-12T19:50:32.701Z,98660.82
2018-04-12T19:53:01.999Z,98656.33
2018-04-12T19:55:32.034Z,98661.98
2018-04-12T19:58:01.330Z,98657.05
2018-04-12T20:00:30.833Z,98654.52
2018-04-12T20:03:00.053Z,98654.12
2018-04-12T20:05:30.070Z,98657.19
2018-04-12T20:08:00.132Z,98651.34
2018-04-12T20:10:29.384Z,98655.81
2018-04-12T20:12:58.961Z,98656.59
2018-04-12T20:15:28.218Z,98657.75
2018-04-12T20:17:57.456Z,98658.86
2018-04-12T20:20:26.742Z,98659.75
2018-04-12T20:22:56.821Z,98653.79
2018-04-12T20:25:26.810Z,98651.83
2018-04-12T20:27:56.042Z,98643.01
2018-04-12T20:30:25.290Z,98647.02
2018-04-12T20:32:54.542Z,98647.86
2018-04-12T20:35:23.780Z,98645.89
2018-04-12T20:37:53.777Z,98645.68
2018-04-12T20:40:23.836Z,98649.64
2018-04-12T20:42:53.110Z,98647.19
2018-04-12T20:45:23.118Z,98652.27
2018-04-12T20:47:53.111Z,98654.27
2018-04-12T20:50:22.348Z,98659.14
2018-04-12T20:52:51.622Z,98658.70
2018-04-12T20:55:21.713Z,98655.20
2018-04-12T20:57:50.962Z,98655.59
2018-04-12T21:00:20.216Z,98662.20
2018-04-12T21:02:49.511Z,98655.98
2018-04-12T21:05:18.766Z,98653.65
2018-04-12T21:07:48.853Z,98657.73
2018-04-12T21:10:18.842Z,98671.98
2018-04-12T21:12:48.108Z,98665.31
2018-04-12T21:15:17.339Z,98669.72
2018-04-12T21:17:46.572Z,98667.64
2018-04-12T21:20:16.590Z,98667.46
2018-04-12T21:22:46.571Z,98664.81
2018-04-12T21:25:15.825Z,98663.62
2018-04-12T21:27:45.053Z,98664.09
2018-04-12T21:30:14.283Z,98667.27
2018-04-12T21:32:43.525Z,98665.73
2018-04-12T21:35:12.786Z,98666.48
2018-04-12T21:37:42.018Z,98670.52
2018-04-12T21:40:11.294Z,98681.89
2018-04-12T21:42:41.265Z,98676.09
2018-04-12T21:45:10.518Z,98682.51
2018-04-12T21:47:40.553Z,98678.81
2018-04-12T21:50:09.778Z,98685.77
2018-04-12T21:52:39.039Z,98685.75
2018-04-12T21:55:08.328Z,98695.30
2018-04-12T21:57:38.326Z,98694.32
2018-04-12T22:00:08.367Z,98704.41
2018-04-12T22:02:37.577Z,98707.12
2018-04-12T22:05:06.914Z,98703.80
2018-04-12T22:07:36.456Z,98709.11
2018-04-12T22:10:06.441Z,98714.11
2018-04-12T22:12:35.692Z,98713.87
2018-04-12T22:15:04.927Z,98707.41
2018-04-12T22:17:34.968Z,98707.41
2018-04-12T22:20:04.258Z,98712.01
2018-04-12T22:22:33.519Z,98714.46
2018-04-12T22:25:02.777Z,98710.12
2018-04-12T22:27:32.771Z,98710.23
2018-04-12T22:30:02.790Z,98703.32
2018-04-12T22:32:32.081Z,98717.92
2018-04-12T22:35:01.311Z,98714.81
2018-04-12T22:37:31.327Z,98714.03
2018-04-12T22:40:01.311Z,98711.00
2018-04-12T22:42:30.570Z,98706.73
2018-04-12T22:44:59.801Z,98710.24
2018-04-12T22:47:29.034Z,98707.78
2018-04-12T22:49:59.008Z,98711.88
2018-04-12T22:52:28.233Z,98712.68
2018-04-12T22:54:58.311Z,98707.63
2018-04-12T22:57:27.522Z,98705.55
2018-04-12T22:59:56.758Z,98706.73
2018-04-12T23:02:26.001Z,98706.02
2018-04-12T23:04:55.240Z,98710.52
2018-04-12T23:07:24.699Z,98710.52
2018-04-12T23:09:53.939Z,98713.43
2018-04-12T23:12:23.236Z,98711.67
2018-04-12T23:14:52.472Z,98717.52
2018-04-12T23:17:22.442Z,98714.39
2018-04-12T23:19:51.706Z,98715.97
2018-04-12T23:22:20.915Z,98714.97
2018-04-12T23:24:50.158Z,98714.70
2018-04-12T23:27:19.384Z,98716.19
2018-04-12T23:29:48.608Z,98717.34
2018-04-12T23:32:17.841Z,98714.64
2018-04-12T23:34:47.097Z,98718.38
2018-04-12T23:37:16.314Z,98717.55
2018-04-12T23:39:45.566Z,98723.55
2018-04-12T23:42:14.802Z,98718.91
2018-04-12T23:44:44.049Z,98726.85
2018-04-12T23:47:14.022Z,98732.98
2018-04-12T23:49:43.261Z,98735.14
2018-04-12T23:52:13.282Z,98749.73
2018-04-12T23:54:42.513Z,98747.52
2018-04-12T23:57:11.770Z,98749.06
2018-04-12T23:59:41.845Z,98754.56
